Orbital elements of FENGYUN 1C DEB
| Launched | 9 May 1999 |
| Flight ended | – |
| Launch site | Taiyuan Space Center, PRC |
| Owner | People's Republic of China |
| NORAD ID | 31338 |
| Date fetched |
Epoch osculation |
Inc. [°] |
Ecc. | RA asc node [hr] |
Arg Peri. [°] |
Mean anom [°] |
Mean motion [rev/day] |
Abs. mag |
| Date fetched |
Epoch osculation |
Inc. [°] |
Ecc. | RA asc node [hr] |
Arg Peri. [°] |
Mean anom [°] |
Mean motion [rev/day] |
Abs. mag |
| 2026 May 08 17:57 | 2026 May 01 20:09:29 | 98.7128 | 0.00735 | 21.6761 | 65.5035 | 295.3789 | 14.22350 | – |
| 2026 May 07 17:58 | 2026 May 01 20:09:29 | 98.7128 | 0.00735 | 21.6761 | 65.5035 | 295.3789 | 14.22350 | – |
| 2026 May 06 17:57 | 2026 May 01 20:09:29 | 98.7128 | 0.00735 | 21.6761 | 65.5035 | 295.3789 | 14.22350 | – |
| 2026 May 05 17:57 | 2026 May 01 20:09:29 | 98.7128 | 0.00735 | 21.6761 | 65.5035 | 295.3789 | 14.22350 | – |
| 2026 May 04 17:57 | 2026 Apr 27 19:55:26 | 98.7137 | 0.00734 | 21.4119 | 76.8079 | 295.3789 | 14.22350 | – |
| 2026 May 03 17:57 | 2026 Apr 27 19:55:26 | 98.7137 | 0.00734 | 21.4119 | 76.8079 | 295.3789 | 14.22350 | – |
| 2026 May 02 17:57 | 2026 Apr 27 19:55:26 | 98.7137 | 0.00734 | 21.4119 | 76.8079 | 295.3789 | 14.22350 | – |
| 2026 May 01 17:56 | 2026 Apr 27 19:55:26 | 98.7137 | 0.00734 | 21.4119 | 76.8079 | 295.3789 | 14.22350 | – |
| 2026 Apr 30 17:56 | 2026 Apr 27 19:55:26 | 98.7137 | 0.00734 | 21.4119 | 76.8079 | 295.3789 | 14.22350 | – |
| 2026 Apr 29 17:57 | 2026 Apr 22 20:02:57 | 98.7140 | 0.00732 | 21.0827 | 90.9773 | 295.3789 | 14.22350 | – |
| 2026 Apr 28 17:56 | 2026 Apr 22 20:02:57 | 98.7140 | 0.00732 | 21.0827 | 90.9773 | 295.3789 | 14.22350 | – |
| 2026 Apr 27 17:58 | 2026 Apr 22 20:02:57 | 98.7140 | 0.00732 | 21.0827 | 90.9773 | 295.3789 | 14.22350 | – |
| 2026 Apr 26 17:58 | 2026 Apr 22 20:02:57 | 98.7140 | 0.00732 | 21.0827 | 90.9773 | 295.3789 | 14.22350 | – |
| 2026 Apr 25 17:58 | 2026 Apr 22 20:02:57 | 98.7140 | 0.00732 | 21.0827 | 90.9773 | 295.3789 | 14.22350 | – |
| 2026 Apr 24 17:59 | 2026 Apr 22 20:02:57 | 98.7140 | 0.00732 | 21.0827 | 90.9773 | 295.3789 | 14.22350 | – |
| 2026 Apr 23 17:57 | 2026 Apr 18 19:48:32 | 98.7139 | 0.00732 | 20.8185 | 102.3728 | 295.3789 | 14.22350 | – |
| 2026 Apr 22 17:57 | 2026 Apr 18 19:48:32 | 98.7139 | 0.00732 | 20.8185 | 102.3728 | 295.3789 | 14.22350 | – |
| 2026 Apr 21 17:57 | 2026 Apr 18 19:48:32 | 98.7139 | 0.00732 | 20.8185 | 102.3728 | 295.3789 | 14.22350 | – |
| 2026 Apr 20 17:57 | 2026 Apr 18 19:48:32 | 98.7139 | 0.00732 | 20.8185 | 102.3728 | 295.3789 | 14.22350 | – |
| 2026 Apr 19 17:58 | 2026 Apr 18 19:48:32 | 98.7139 | 0.00732 | 20.8185 | 102.3728 | 295.3789 | 14.22350 | – |
| 2026 Apr 18 17:56 | 2026 Apr 12 20:17:21 | 98.7156 | 0.00726 | 20.4244 | 119.3929 | 295.3789 | 14.22350 | – |
| 2026 Apr 16 17:57 | 2026 Apr 12 20:17:21 | 98.7156 | 0.00726 | 20.4244 | 119.3929 | 295.3789 | 14.22350 | – |
| 2026 Apr 14 17:57 | 2026 Apr 12 20:17:21 | 98.7156 | 0.00726 | 20.4244 | 119.3929 | 295.3789 | 14.22350 | – |
| 2026 Apr 13 17:57 | 2026 Apr 12 20:17:21 | 98.7156 | 0.00726 | 20.4244 | 119.3929 | 295.3789 | 14.22350 | – |
| 2026 Apr 12 17:57 | 2026 Apr 08 06:32:10 | 98.7156 | 0.00723 | 20.1231 | 132.5181 | 295.3789 | 14.22350 | – |
| 2026 Apr 11 17:57 | 2026 Apr 08 06:32:10 | 98.7156 | 0.00723 | 20.1231 | 132.5181 | 295.3789 | 14.22350 | – |